createdAt,value
2023-05-13T00:01:43.448Z,14.52
2023-05-13T00:04:10.271Z,14.51
2023-05-13T00:06:37.371Z,14.54
2023-05-13T00:09:04.482Z,14.20
2023-05-13T00:11:31.310Z,14.09
2023-05-13T00:13:58.167Z,14.39
2023-05-13T00:16:27.661Z,14.48
2023-05-13T00:18:55.979Z,14.53
2023-05-13T00:21:23.621Z,14.28
2023-05-13T00:23:50.549Z,14.49
2023-05-13T00:26:17.485Z,14.45
2023-05-13T00:28:44.348Z,14.36
2023-05-13T00:31:11.535Z,14.50
2023-05-13T00:33:38.557Z,14.48
2023-05-13T00:36:06.424Z,14.53
2023-05-13T00:38:33.453Z,14.44
2023-05-13T00:41:00.714Z,14.41
2023-05-13T00:43:27.609Z,14.17
2023-05-13T00:45:54.598Z,14.47
2023-05-13T00:48:23.097Z,14.43
2023-05-13T00:50:50.201Z,14.48
2023-05-13T00:53:17.800Z,14.38
2023-05-13T00:55:46.126Z,14.42
2023-05-13T00:58:14.000Z,14.29
2023-05-13T01:01:15.225Z,14.36
2023-05-13T01:04:04.385Z,14.31
2023-05-13T01:06:40.447Z,14.29
2023-05-13T01:09:26.196Z,14.33
2023-05-13T01:11:55.525Z,14.37
2023-05-13T01:14:34.014Z,14.23
2023-05-13T01:17:12.293Z,14.30
2023-05-13T01:19:44.813Z,14.34
2023-05-13T01:22:11.686Z,14.24
2023-05-13T01:24:38.669Z,14.29
2023-05-13T01:27:06.355Z,14.24
2023-05-13T01:29:33.503Z,14.12
2023-05-13T01:32:01.165Z,14.28
2023-05-13T01:34:28.545Z,14.34
2023-05-13T01:36:56.279Z,14.30
2023-05-13T01:39:24.474Z,14.23
2023-05-13T01:41:51.422Z,14.25
2023-05-13T01:44:18.286Z,14.22
2023-05-13T01:46:45.512Z,14.33
2023-05-13T01:49:12.590Z,14.18
2023-05-13T01:51:40.317Z,14.12
2023-05-13T01:54:07.234Z,14.58
2023-05-13T01:56:34.392Z,14.63
2023-05-13T01:59:01.269Z,14.80
2023-05-13T02:01:28.246Z,14.74
2023-05-13T02:04:00.016Z,14.33
2023-05-13T02:06:28.023Z,14.21
2023-05-13T02:08:54.966Z,14.14
2023-05-13T02:11:22.441Z,14.24
2023-05-13T02:13:49.384Z,14.23
2023-05-13T02:16:20.278Z,14.23
2023-05-13T02:18:47.112Z,14.26
2023-05-13T02:21:14.034Z,14.19
2023-05-13T02:23:40.931Z,14.19
2023-05-13T02:26:07.821Z,14.12
2023-05-13T02:28:34.636Z,14.11
2023-05-13T02:31:01.517Z,14.18
2023-05-13T02:33:28.331Z,14.20
2023-05-13T02:35:55.159Z,14.22
2023-05-13T02:38:22.033Z,14.22
2023-05-13T02:40:49.205Z,14.04
2023-05-13T02:43:16.068Z,14.21
2023-05-13T02:45:42.913Z,14.04
2023-05-13T02:48:11.029Z,14.16
2023-05-13T02:50:37.997Z,14.03
2023-05-13T02:53:04.851Z,14.21
2023-05-13T02:55:31.707Z,14.11
2023-05-13T02:57:58.552Z,14.04
2023-05-13T03:00:25.586Z,14.06
2023-05-13T03:02:52.533Z,14.18
2023-05-13T03:05:19.540Z,14.14
2023-05-13T03:07:46.526Z,14.26
2023-05-13T03:10:13.797Z,14.17
2023-05-13T03:12:40.748Z,14.08
2023-05-13T03:15:08.419Z,14.06
2023-05-13T03:17:35.287Z,13.93
2023-05-13T03:20:02.218Z,14.00
2023-05-13T03:22:29.196Z,14.01
2023-05-13T03:24:57.160Z,14.05
2023-05-13T03:27:24.016Z,14.11
2023-05-13T03:29:51.032Z,14.11
2023-05-13T03:32:17.903Z,14.04
2023-05-13T03:34:44.712Z,14.06
2023-05-13T03:37:11.734Z,14.03
2023-05-13T03:39:38.550Z,13.97
2023-05-13T03:42:05.710Z,13.85
2023-05-13T03:44:32.527Z,14.02
2023-05-13T03:46:59.311Z,13.79
2023-05-13T03:49:26.275Z,13.99
2023-05-13T03:51:53.083Z,13.80
2023-05-13T03:54:19.871Z,13.73
2023-05-13T03:56:46.804Z,13.93
2023-05-13T03:59:13.674Z,14.34
2023-05-13T04:01:40.745Z,14.58
2023-05-13T04:04:07.579Z,14.55
2023-05-13T04:06:34.498Z,14.55
2023-05-13T04:09:04.452Z,14.52
2023-05-13T04:11:32.323Z,14.41
2023-05-13T04:13:59.397Z,14.46
2023-05-13T04:16:26.267Z,14.50
2023-05-13T04:18:53.231Z,14.57
2023-05-13T04:21:20.077Z,14.55
2023-05-13T04:23:46.900Z,14.43
2023-05-13T04:26:13.711Z,14.50
2023-05-13T04:28:40.601Z,14.38
2023-05-13T04:31:07.452Z,14.51
2023-05-13T04:33:34.284Z,14.23
2023-05-13T04:36:01.353Z,14.37
2023-05-13T04:38:28.162Z,14.30
2023-05-13T04:40:55.020Z,14.02
2023-05-13T04:43:22.116Z,13.95
2023-05-13T04:45:49.255Z,14.29
2023-05-13T04:48:16.495Z,14.49
2023-05-13T04:50:47.108Z,14.50
2023-05-13T04:53:15.586Z,14.46
2023-05-13T04:55:42.603Z,14.43
2023-05-13T04:58:09.507Z,14.55
2023-05-13T05:00:36.311Z,14.37
2023-05-13T05:03:03.249Z,14.47
2023-05-13T05:05:30.155Z,14.52
2023-05-13T05:07:56.953Z,14.52
2023-05-13T05:10:23.912Z,14.39
2023-05-13T05:12:51.032Z,14.38
2023-05-13T05:15:17.857Z,14.37
2023-05-13T05:17:45.404Z,14.43
2023-05-13T05:20:13.392Z,14.34
2023-05-13T05:22:41.998Z,14.55
2023-05-13T05:25:10.645Z,14.13
2023-05-13T05:27:37.491Z,14.40
2023-05-13T05:30:05.299Z,14.09
2023-05-13T05:32:32.764Z,14.04
2023-05-13T05:35:02.050Z,14.13
2023-05-13T05:37:30.807Z,14.09
2023-05-13T05:39:57.660Z,14.22
2023-05-13T05:42:24.488Z,14.21
2023-05-13T05:44:51.337Z,14.00
2023-05-13T05:47:18.147Z,14.05
2023-05-13T05:49:45.006Z,14.08
2023-05-13T05:52:13.267Z,14.55
2023-05-13T05:54:40.140Z,14.20
2023-05-13T05:57:07.022Z,14.28
2023-05-13T05:59:33.909Z,14.18
2023-05-13T06:02:00.799Z,14.18
2023-05-13T06:04:27.799Z,14.33
2023-05-13T06:06:54.636Z,14.47
2023-05-13T06:09:21.567Z,14.19
2023-05-13T06:11:48.401Z,14.49
2023-05-13T06:14:16.688Z,14.63
2023-05-13T06:16:44.678Z,14.58
2023-05-13T06:19:11.596Z,14.50
2023-05-13T06:21:38.491Z,14.65
2023-05-13T06:24:05.652Z,14.66
2023-05-13T06:26:32.648Z,14.63
2023-05-13T06:28:59.539Z,14.77
2023-05-13T06:31:26.735Z,14.64
2023-05-13T06:33:53.663Z,14.85
2023-05-13T06:36:20.646Z,14.98
2023-05-13T06:38:47.664Z,14.80
2023-05-13T06:41:15.321Z,14.44
2023-05-13T06:43:42.145Z,14.78
2023-05-13T06:46:08.997Z,14.80
2023-05-13T06:48:35.855Z,14.93
2023-05-13T06:51:02.682Z,14.78
2023-05-13T06:53:29.531Z,14.50
2023-05-13T06:55:56.383Z,14.30
2023-05-13T06:58:23.223Z,14.64
2023-05-13T07:00:50.125Z,14.84
2023-05-13T07:03:17.742Z,15.02
2023-05-13T07:05:44.883Z,15.06
2023-05-13T07:08:17.689Z,15.12
2023-05-13T07:10:45.044Z,15.07
2023-05-13T07:13:11.962Z,14.85
2023-05-13T07:15:38.893Z,15.19
2023-05-13T07:18:05.882Z,14.89
2023-05-13T07:20:32.934Z,15.22
2023-05-13T07:22:59.761Z,15.36
2023-05-13T07:25:26.661Z,15.63
2023-05-13T07:27:53.526Z,15.77
2023-05-13T07:30:20.642Z,16.07
2023-05-13T07:32:47.936Z,16.27
2023-05-13T07:35:17.091Z,16.28
2023-05-13T07:37:46.951Z,16.31
2023-05-13T07:40:14.059Z,16.31
2023-05-13T07:42:41.308Z,16.35
2023-05-13T07:45:09.064Z,16.18
2023-05-13T07:47:35.880Z,15.78
2023-05-13T07:50:02.798Z,16.03
2023-05-13T07:52:29.678Z,16.11
2023-05-13T07:54:56.555Z,15.77
2023-05-13T07:57:23.483Z,15.08
2023-05-13T07:59:50.304Z,14.90
2023-05-13T08:02:17.254Z,15.75
2023-05-13T08:04:44.216Z,15.77
2023-05-13T08:07:11.758Z,16.07
2023-05-13T08:09:38.827Z,15.98
2023-05-13T08:12:06.394Z,16.00
2023-05-13T08:14:33.251Z,15.93
2023-05-13T08:17:00.051Z,16.20
2023-05-13T08:19:26.899Z,16.46
2023-05-13T08:21:53.776Z,16.58
2023-05-13T08:24:20.808Z,16.32
2023-05-13T08:26:47.712Z,16.41
2023-05-13T08:29:15.692Z,15.72
2023-05-13T08:31:42.621Z,16.22
2023-05-13T08:34:09.461Z,15.97
2023-05-13T08:36:36.493Z,15.86
2023-05-13T08:39:03.690Z,16.20
2023-05-13T08:41:31.846Z,16.31
2023-05-13T08:43:59.192Z,16.22
2023-05-13T08:46:28.908Z,16.49
2023-05-13T08:48:56.413Z,16.71
2023-05-13T08:51:23.807Z,16.86
2023-05-13T08:53:53.120Z,16.93
2023-05-13T08:56:20.114Z,16.99
2023-05-13T08:58:46.966Z,16.72
2023-05-13T09:01:13.887Z,16.64
2023-05-13T09:04:00.036Z,16.39
2023-05-13T09:06:26.942Z,16.37
2023-05-13T09:08:54.991Z,16.45
2023-05-13T09:11:22.966Z,16.20
2023-05-13T09:14:02.741Z,16.21
2023-05-13T09:16:30.408Z,16.56
2023-05-13T09:19:04.205Z,16.86
2023-05-13T09:21:35.484Z,17.00
2023-05-13T09:24:18.989Z,17.11
2023-05-13T09:26:46.393Z,17.00
2023-05-13T09:29:25.396Z,17.30
2023-05-13T09:31:55.135Z,17.11
2023-05-13T09:34:49.125Z,17.13
2023-05-13T09:37:18.742Z,17.01
2023-05-13T09:39:46.167Z,16.79
2023-05-13T09:42:18.458Z,17.01
2023-05-13T09:44:49.750Z,17.07
2023-05-13T09:47:17.812Z,17.19
2023-05-13T09:49:55.038Z,17.15
2023-05-13T09:52:22.500Z,17.17
2023-05-13T09:54:49.347Z,16.97
2023-05-13T09:57:16.259Z,17.11
2023-05-13T09:59:43.118Z,17.00
2023-05-13T10:02:11.597Z,17.29
2023-05-13T10:04:38.852Z,17.42
2023-05-13T10:07:06.355Z,17.29
2023-05-13T10:09:36.936Z,17.51
2023-05-13T10:12:07.848Z,17.33
2023-05-13T10:14:37.276Z,17.52
2023-05-13T10:17:05.449Z,16.78
2023-05-13T10:19:32.942Z,17.38
2023-05-13T10:22:00.409Z,17.44
2023-05-13T10:24:28.917Z,17.86
2023-05-13T10:26:58.045Z,18.03
2023-05-13T10:29:26.557Z,17.79
2023-05-13T10:31:54.545Z,17.93
2023-05-13T10:34:22.988Z,18.06
2023-05-13T10:37:27.515Z,18.00
2023-05-13T10:40:22.222Z,17.27
2023-05-13T10:43:08.761Z,17.83
2023-05-13T10:45:35.728Z,17.60
2023-05-13T10:48:11.919Z,17.28
2023-05-13T10:50:39.247Z,17.50
2023-05-13T10:53:19.661Z,17.31
2023-05-13T10:55:46.624Z,17.76
2023-05-13T10:58:14.994Z,17.92
2023-05-13T11:00:45.822Z,18.25
2023-05-13T11:03:18.599Z,18.19
2023-05-13T11:05:59.309Z,18.15
2023-05-13T11:08:44.319Z,17.50
2023-05-13T11:11:20.818Z,17.92
2023-05-13T11:13:51.182Z,18.09
2023-05-13T11:16:18.693Z,18.40
2023-05-13T11:18:45.807Z,18.86
2023-05-13T11:21:13.324Z,19.11
2023-05-13T11:24:06.432Z,19.39
2023-05-13T11:26:53.436Z,19.25
2023-05-13T11:29:36.399Z,19.28
2023-05-13T11:32:05.818Z,18.88
2023-05-13T11:34:34.401Z,19.07
2023-05-13T11:37:04.152Z,19.09
2023-05-13T11:39:33.052Z,19.12
2023-05-13T11:42:03.903Z,19.14
2023-05-13T11:44:31.146Z,19.53
2023-05-13T11:47:06.053Z,19.99
2023-05-13T11:49:44.553Z,19.71
2023-05-13T11:52:17.157Z,19.86
2023-05-13T11:54:56.243Z,20.39
2023-05-13T11:57:28.343Z,21.27
2023-05-13T11:59:57.964Z,21.74
2023-05-13T12:02:33.515Z,21.89
2023-05-13T12:05:04.262Z,21.84
2023-05-13T12:07:32.018Z,20.93
2023-05-13T12:10:01.533Z,20.99
2023-05-13T12:12:30.290Z,20.83
2023-05-13T12:15:03.791Z,20.34
2023-05-13T12:17:31.899Z,20.24
2023-05-13T12:20:19.424Z,20.32
2023-05-13T12:22:46.133Z,19.49
2023-05-13T12:25:31.389Z,19.93
2023-05-13T12:27:59.809Z,20.02
2023-05-13T12:30:33.902Z,19.58
2023-05-13T12:33:00.856Z,19.99
2023-05-13T12:35:27.764Z,19.78
2023-05-13T12:38:02.328Z,19.90
2023-05-13T12:40:29.282Z,19.98
2023-05-13T12:43:00.718Z,20.10
2023-05-13T12:45:33.511Z,20.34
2023-05-13T12:48:01.058Z,20.38
2023-05-13T12:50:28.009Z,20.39
2023-05-13T12:52:54.875Z,20.47
2023-05-13T12:55:22.093Z,20.53
2023-05-13T12:58:03.121Z,20.15
2023-05-13T13:00:30.907Z,20.48
2023-05-13T13:02:58.198Z,20.31
2023-05-13T13:05:26.986Z,20.66
2023-05-13T13:07:53.846Z,20.55
2023-05-13T13:10:20.788Z,20.43
2023-05-13T13:12:47.941Z,20.41
2023-05-13T13:15:14.750Z,20.59
2023-05-13T13:17:41.649Z,20.81
2023-05-13T13:20:08.861Z,20.67
2023-05-13T13:22:37.186Z,20.42
2023-05-13T13:25:07.890Z,20.53
2023-05-13T13:27:35.158Z,20.83
2023-05-13T13:30:02.578Z,21.15
2023-05-13T13:32:29.503Z,20.75
2023-05-13T13:34:58.129Z,21.40
2023-05-13T13:37:25.122Z,21.81
2023-05-13T13:39:51.978Z,21.67
2023-05-13T13:42:18.792Z,22.11
2023-05-13T13:44:45.623Z,22.56
2023-05-13T13:47:12.483Z,22.22
2023-05-13T13:49:39.321Z,22.22
2023-05-13T13:52:06.387Z,21.86
2023-05-13T13:54:33.228Z,22.21
2023-05-13T13:57:00.052Z,22.26
2023-05-13T13:59:26.913Z,21.71
2023-05-13T14:01:54.075Z,21.04
2023-05-13T14:04:23.591Z,20.89
2023-05-13T14:06:51.229Z,20.66
2023-05-13T14:09:18.616Z,20.55
2023-05-13T14:11:45.661Z,20.71
2023-05-13T14:14:12.776Z,20.50
2023-05-13T14:16:40.128Z,20.87
2023-05-13T14:19:06.968Z,21.35
2023-05-13T14:21:33.882Z,21.52
2023-05-13T14:24:00.689Z,21.53
2023-05-13T14:26:27.866Z,21.64
2023-05-13T14:28:54.815Z,22.02
2023-05-13T14:31:21.690Z,21.65
2023-05-13T14:33:48.525Z,21.29
2023-05-13T14:36:16.309Z,22.46
2023-05-13T14:38:44.322Z,23.09
2023-05-13T14:41:12.594Z,22.99
2023-05-13T14:43:39.434Z,22.44
2023-05-13T14:46:06.309Z,22.60
2023-05-13T14:48:33.126Z,22.15
2023-05-13T14:50:59.967Z,22.13
2023-05-13T14:53:26.805Z,21.40
2023-05-13T14:55:53.863Z,21.17
2023-05-13T14:58:20.769Z,21.13
2023-05-13T15:00:49.137Z,21.25
2023-05-13T15:03:16.652Z,21.37
2023-05-13T15:05:44.296Z,21.19
2023-05-13T15:08:11.448Z,21.25
2023-05-13T15:10:38.244Z,21.14
2023-05-13T15:13:05.030Z,21.09
2023-05-13T15:15:33.565Z,21.07
2023-05-13T15:18:00.564Z,21.16
2023-05-13T15:20:28.544Z,21.34
2023-05-13T15:22:57.681Z,21.51
2023-05-13T15:25:24.504Z,21.66
2023-05-13T15:27:51.336Z,21.74
2023-05-13T15:30:18.294Z,21.79
2023-05-13T15:32:45.194Z,21.66
2023-05-13T15:35:12.119Z,20.94
2023-05-13T15:37:42.575Z,21.14
2023-05-13T15:40:10.045Z,21.15
2023-05-13T15:42:36.884Z,20.80
2023-05-13T15:45:04.250Z,21.12
2023-05-13T15:47:31.263Z,21.20
2023-05-13T15:49:58.417Z,21.40
2023-05-13T15:52:25.271Z,21.36
2023-05-13T15:54:52.157Z,21.12
2023-05-13T15:57:19.155Z,21.04
2023-05-13T15:59:46.041Z,20.95
2023-05-13T16:02:12.906Z,21.17
2023-05-13T16:04:39.891Z,21.32
2023-05-13T16:07:10.932Z,21.24
2023-05-13T16:09:41.013Z,21.15
2023-05-13T16:12:08.296Z,21.10
2023-05-13T16:14:35.138Z,21.13
2023-05-13T16:17:02.088Z,20.95
2023-05-13T16:19:28.894Z,20.95
2023-05-13T16:21:56.009Z,20.98
2023-05-13T16:24:22.798Z,20.85
2023-05-13T16:26:49.769Z,20.80
2023-05-13T16:29:17.386Z,20.85
2023-05-13T16:31:44.218Z,20.78
2023-05-13T16:34:11.171Z,20.71
2023-05-13T16:36:38.015Z,20.66
2023-05-13T16:39:05.555Z,20.52
2023-05-13T16:41:33.210Z,20.59
2023-05-13T16:44:00.087Z,20.50
2023-05-13T16:46:27.014Z,20.33
2023-05-13T16:48:53.915Z,20.21
2023-05-13T16:51:20.787Z,20.06
2023-05-13T16:53:47.621Z,19.95
2023-05-13T16:56:14.410Z,19.82
2023-05-13T16:58:41.441Z,19.76
2023-05-13T17:01:08.402Z,19.72
2023-05-13T17:03:35.289Z,19.66
2023-05-13T17:06:03.076Z,19.60
2023-05-13T17:08:30.014Z,19.61
2023-05-13T17:10:56.878Z,19.63
2023-05-13T17:13:23.776Z,19.63
2023-05-13T17:15:51.376Z,19.55
2023-05-13T17:18:18.289Z,19.52
2023-05-13T17:20:45.880Z,19.56
2023-05-13T17:23:12.762Z,19.59
2023-05-13T17:25:39.642Z,19.55
2023-05-13T17:28:09.256Z,19.49
2023-05-13T17:30:36.090Z,19.46
2023-05-13T17:33:02.952Z,19.43
2023-05-13T17:35:29.913Z,19.38
2023-05-13T17:37:56.719Z,19.31
2023-05-13T17:40:23.769Z,19.32
2023-05-13T17:42:52.746Z,19.30
2023-05-13T17:45:20.059Z,19.26
2023-05-13T17:47:46.971Z,19.23
2023-05-13T17:50:14.890Z,19.21
2023-05-13T17:52:41.805Z,19.14
2023-05-13T17:55:09.149Z,19.13
2023-05-13T17:57:35.973Z,19.07
2023-05-13T18:00:06.951Z,18.97
2023-05-13T18:02:34.088Z,18.90
2023-05-13T18:05:01.044Z,18.80
2023-05-13T18:07:28.239Z,18.74
2023-05-13T18:09:55.163Z,18.66
2023-05-13T18:12:22.011Z,18.67
2023-05-13T18:14:48.901Z,18.60
2023-05-13T18:17:16.016Z,18.59
2023-05-13T18:19:42.838Z,18.50
2023-05-13T18:22:10.724Z,18.44
2023-05-13T18:24:40.742Z,18.41
2023-05-13T18:27:07.918Z,18.34
2023-05-13T18:29:35.855Z,18.36
2023-05-13T18:32:04.758Z,18.32
2023-05-13T18:34:33.106Z,18.22
2023-05-13T18:37:00.203Z,18.23
2023-05-13T18:39:27.043Z,18.17
2023-05-13T18:41:53.908Z,18.18
2023-05-13T18:44:20.741Z,18.14
2023-05-13T18:46:47.591Z,17.96
2023-05-13T18:49:14.421Z,17.99
2023-05-13T18:51:41.410Z,17.58
2023-05-13T18:54:08.200Z,17.89
2023-05-13T18:56:35.089Z,17.68
2023-05-13T18:59:01.934Z,17.58
2023-05-13T19:01:28.932Z,17.44
2023-05-13T19:03:56.793Z,17.65
2023-05-13T19:06:23.747Z,17.50
2023-05-13T19:08:50.571Z,17.49
2023-05-13T19:11:17.454Z,17.61
2023-05-13T19:13:47.562Z,17.54
2023-05-13T19:16:15.537Z,17.54
2023-05-13T19:18:42.544Z,17.34
2023-05-13T19:21:09.380Z,17.25
2023-05-13T19:23:37.888Z,16.89
2023-05-13T19:26:04.776Z,17.04
2023-05-13T19:28:32.139Z,16.97
2023-05-13T19:30:58.933Z,16.96
2023-05-13T19:33:26.157Z,16.90
2023-05-13T19:35:53.025Z,16.77
2023-05-13T19:38:20.714Z,16.83
2023-05-13T19:40:47.974Z,16.80
2023-05-13T19:43:14.887Z,16.86
2023-05-13T19:45:41.922Z,16.88
2023-05-13T19:48:08.872Z,16.80
2023-05-13T19:50:35.830Z,16.77
2023-05-13T19:53:02.650Z,16.72
2023-05-13T19:55:29.696Z,16.69
2023-05-13T19:57:56.771Z,16.64
2023-05-13T20:00:23.998Z,16.68
2023-05-13T20:02:51.509Z,16.72
2023-05-13T20:05:18.594Z,16.66
2023-05-13T20:07:45.616Z,16.68
2023-05-13T20:10:12.538Z,16.65
2023-05-13T20:12:39.376Z,16.60
2023-05-13T20:15:06.896Z,16.52
2023-05-13T20:17:33.774Z,16.49
2023-05-13T20:20:01.251Z,16.49
2023-05-13T20:22:28.185Z,16.46
2023-05-13T20:24:55.138Z,16.39
2023-05-13T20:27:21.976Z,16.32
2023-05-13T20:29:49.296Z,16.31
2023-05-13T20:32:24.442Z,16.28
2023-05-13T20:34:52.487Z,16.19
2023-05-13T20:37:21.795Z,16.14
2023-05-13T20:39:50.426Z,16.10
2023-05-13T20:42:17.327Z,16.03
2023-05-13T20:44:46.203Z,15.98
2023-05-13T20:47:13.837Z,16.01
2023-05-13T20:49:43.858Z,15.94
2023-05-13T20:52:11.303Z,15.88
2023-05-13T20:54:38.384Z,15.76
2023-05-13T20:57:05.752Z,15.78
2023-05-13T20:59:32.629Z,15.72
2023-05-13T21:01:59.696Z,15.67
2023-05-13T21:04:26.718Z,15.62
2023-05-13T21:06:53.780Z,15.57
2023-05-13T21:09:20.693Z,15.51
2023-05-13T21:11:47.584Z,15.57
2023-05-13T21:14:14.490Z,15.57
2023-05-13T21:16:41.463Z,15.58
2023-05-13T21:19:08.482Z,15.59
2023-05-13T21:21:35.424Z,15.65
2023-05-13T21:24:02.395Z,15.62
2023-05-13T21:26:29.361Z,15.60
2023-05-13T21:28:56.213Z,15.61
2023-05-13T21:31:23.738Z,15.46
2023-05-13T21:33:50.653Z,15.48
2023-05-13T21:36:17.519Z,15.42
2023-05-13T21:38:44.374Z,15.58
2023-05-13T21:41:11.243Z,15.41
2023-05-13T21:43:38.144Z,15.43
2023-05-13T21:46:06.537Z,15.46
2023-05-13T21:48:33.502Z,15.19
2023-05-13T21:51:00.471Z,15.25
2023-05-13T21:53:27.874Z,15.34
2023-05-13T21:55:58.931Z,15.32
2023-05-13T21:58:26.037Z,15.20
2023-05-13T22:00:53.624Z,15.31
2023-05-13T22:03:20.672Z,15.24
2023-05-13T22:05:47.566Z,15.31
2023-05-13T22:08:14.397Z,15.27
2023-05-13T22:10:41.208Z,15.07
2023-05-13T22:13:08.057Z,15.07
2023-05-13T22:15:34.906Z,15.12
2023-05-13T22:18:01.829Z,14.64
2023-05-13T22:20:28.748Z,14.91
2023-05-13T22:22:55.585Z,14.93
2023-05-13T22:25:22.583Z,15.13
2023-05-13T22:27:51.228Z,14.93
2023-05-13T22:30:18.615Z,14.90
2023-05-13T22:32:45.585Z,14.82
2023-05-13T22:35:12.465Z,14.67
2023-05-13T22:37:39.391Z,14.74
2023-05-13T22:40:07.328Z,14.76
2023-05-13T22:42:34.152Z,14.73
2023-05-13T22:45:00.974Z,14.72
2023-05-13T22:47:27.941Z,14.56
2023-05-13T22:49:54.894Z,14.44
2023-05-13T22:52:21.680Z,14.51
2023-05-13T22:54:48.505Z,14.54
2023-05-13T22:57:15.339Z,14.51
2023-05-13T22:59:42.177Z,14.44
2023-05-13T23:02:09.058Z,14.39
2023-05-13T23:04:36.102Z,14.35
2023-05-13T23:07:03.037Z,14.23
2023-05-13T23:09:29.872Z,14.30
2023-05-13T23:11:57.889Z,14.38
2023-05-13T23:14:27.561Z,14.29
2023-05-13T23:16:54.411Z,14.44
2023-05-13T23:19:21.292Z,14.42
2023-05-13T23:21:48.090Z,14.46
2023-05-13T23:24:14.878Z,14.54
2023-05-13T23:26:43.864Z,14.57
2023-05-13T23:29:11.509Z,14.67
2023-05-13T23:31:40.441Z,14.76
2023-05-13T23:34:08.376Z,14.71
2023-05-13T23:36:35.431Z,14.78
2023-05-13T23:39:02.245Z,14.73
2023-05-13T23:41:29.155Z,14.76
2023-05-13T23:43:56.009Z,14.63
2023-05-13T23:46:23.038Z,14.78
2023-05-13T23:48:49.885Z,14.74
2023-05-13T23:51:16.721Z,14.89
2023-05-13T23:53:43.577Z,14.92
2023-05-13T23:56:10.525Z,14.88
2023-05-13T23:58:37.437Z,14.93
